Weather Data

Pearl Creek Farm: 8878 N Farm Road 75, Walnut Grove MO 65770

<== Previous Day (Saturday 04 Jan 2020) | Next Day (Monday 06 Jan 2020) ==>

Summary Precipitation Data For Sunday 05 January 2020

ElementValueUnits
Precipitation0"
Notes(none)
SourcePearl Creek Farm

Summary Temperature Data For Sunday 05 January 2020

ElementValueUnits
High Temperature54 oF
Low Temperature27 oF
Average Temperature39 oF
High Humidity75 %
Low Humidity38 %
Average Humidity54 %
SourceSpringfield-Branson National Airport (SGF)

Detail Temperature Data For Sunday 05 January 2020

Date / TimeTemp (F)RH (%)Dew Pt (F)Report Date / TimeSource
2020-01-05 00:52:00 30 61 18.0 2021-01-15 18:54:53.841352 Springfield-Branson National Airport (SGF)
2020-01-05 01:52:00 31 59 18.0 2021-01-15 18:54:53.841352 Springfield-Branson National Airport (SGF)
2020-01-05 02:52:00 31 61 19.0 2021-01-15 18:54:53.841352 Springfield-Branson National Airport (SGF)
2020-01-05 03:52:00 31 61 19.0 2021-01-15 18:54:53.841352 Springfield-Branson National Airport (SGF)
2020-01-05 04:52:00 33 56 19.0 2021-01-15 18:54:53.841352 Springfield-Branson National Airport (SGF)
2020-01-05 05:52:00 33 54 18.0 2021-01-15 18:54:53.841352 Springfield-Branson National Airport (SGF)
2020-01-05 06:52:00 33 54 18.0 2021-01-15 18:54:53.841352 Springfield-Branson National Airport (SGF)
2020-01-05 07:52:00 33 56 19.0 2021-01-15 18:54:53.841352 Springfield-Branson National Airport (SGF)
2020-01-05 08:52:00 38 52 22.0 2021-01-15 18:54:53.841352 Springfield-Branson National Airport (SGF)
2020-01-05 09:52:00 47 46 27.0 2021-01-15 18:54:53.841352 Springfield-Branson National Airport (SGF)
2020-01-05 10:52:00 50 46 30.0 2021-01-15 18:54:53.841352 Springfield-Branson National Airport (SGF)
2020-01-05 11:52:00 51 46 31.0 2021-01-15 18:54:53.841352 Springfield-Branson National Airport (SGF)
2020-01-05 12:52:00 53 41 30.0 2021-01-15 18:54:53.841352 Springfield-Branson National Airport (SGF)
2020-01-05 13:52:00 54 38 29.0 2021-01-15 18:54:53.841352 Springfield-Branson National Airport (SGF)
2020-01-05 14:52:00 54 38 29.0 2021-01-15 18:54:53.841352 Springfield-Branson National Airport (SGF)
2020-01-05 15:52:00 53 38 28.0 2021-01-15 18:54:53.841352 Springfield-Branson National Airport (SGF)
2020-01-05 16:52:00 50 39 26.0 2021-01-15 18:54:53.841352 Springfield-Branson National Airport (SGF)
2020-01-05 17:52:00 41 51 24.0 2021-01-15 18:54:53.841352 Springfield-Branson National Airport (SGF)
2020-01-05 18:52:00 42 47 23.0 2021-01-15 18:54:53.841352 Springfield-Branson National Airport (SGF)
2020-01-05 19:52:00 33 64 22.0 2021-01-15 18:54:53.841352 Springfield-Branson National Airport (SGF)
2020-01-05 20:52:00 34 61 22.0 2021-01-15 18:54:53.841352 Springfield-Branson National Airport (SGF)
2020-01-05 21:52:00 27 75 20.0 2021-01-15 18:54:53.841352 Springfield-Branson National Airport (SGF)
2020-01-05 22:52:00 29 72 21.0 2021-01-15 18:54:53.841352 Springfield-Branson National Airport (SGF)
2020-01-05 23:52:00 28 72 20.0 2021-01-15 18:54:53.841352 Springfield-Branson National Airport (SGF)

A total of 24 rows are displayed.